sensor_id;sensor_type;location;lat;lon;timestamp;pressure;altitude;pressure_sealevel;temperature;humidity
52975;BME280;38839;45.186;5.720;2024-01-30T10:47:27;100900.59;;;8.81;100.00
52975;BME280;38839;45.186;5.720;2024-01-30T10:49:53;100905.13;;;8.87;100.00
52975;BME280;38839;45.186;5.720;2024-01-30T10:52:19;100895.78;;;8.94;100.00
52975;BME280;38839;45.186;5.720;2024-01-30T10:54:45;100902.38;;;8.82;100.00
52975;BME280;38839;45.186;5.720;2024-01-30T10:57:11;100897.66;;;8.98;100.00
52975;BME280;38839;45.186;5.720;2024-01-30T10:59:37;100903.34;;;9.13;100.00
52975;BME280;38839;45.186;5.720;2024-01-30T11:02:03;100896.41;;;9.14;100.00
52975;BME280;38839;45.186;5.720;2024-01-30T11:04:35;100891.16;;;9.12;100.00
52975;BME280;38839;45.186;5.720;2024-01-30T11:07:01;100891.31;;;9.17;100.00
52975;BME280;38839;45.186;5.720;2024-01-30T11:09:28;100893.66;;;8.80;100.00
52975;BME280;38839;45.186;5.720;2024-01-30T11:11:57;100888.84;;;8.65;100.00
52975;BME280;38839;45.186;5.720;2024-01-30T11:14:27;100877.63;;;8.68;100.00
52975;BME280;38839;45.186;5.720;2024-01-30T11:16:56;100883.19;;;8.79;100.00
52975;BME280;38839;45.186;5.720;2024-01-30T11:19:25;100878.31;;;8.90;100.00
52975;BME280;38839;45.186;5.720;2024-01-30T11:21:52;100871.13;;;9.10;100.00
52975;BME280;38839;45.186;5.720;2024-01-30T11:24:22;100873.47;;;9.31;100.00
52975;BME280;38839;45.186;5.720;2024-01-30T11:26:48;100878.47;;;9.23;100.00
52975;BME280;38839;45.186;5.720;2024-01-30T11:29:13;100874.97;;;9.22;100.00
52975;BME280;38839;45.186;5.720;2024-01-30T11:31:39;100864.56;;;9.22;100.00
52975;BME280;38839;45.186;5.720;2024-01-30T11:34:04;100870.69;;;9.24;100.00
52975;BME280;38839;45.186;5.720;2024-01-30T11:36:30;100864.56;;;9.22;100.00
52975;BME280;38839;45.186;5.720;2024-01-30T11:38:57;100862.50;;;9.41;100.00
52975;BME280;38839;45.186;5.720;2024-01-30T11:41:22;100854.19;;;9.54;100.00
52975;BME280;38839;45.186;5.720;2024-01-30T11:43:52;100860.41;;;9.59;100.00
52975;BME280;38839;45.186;5.720;2024-01-30T11:46:17;100857.03;;;9.62;100.00
52975;BME280;38839;45.186;5.720;2024-01-30T11:48:43;100848.47;;;9.67;100.00
52975;BME280;38839;45.186;5.720;2024-01-30T11:51:08;100838.16;;;9.71;100.00
52975;BME280;38839;45.186;5.720;2024-01-30T11:53:33;100839.25;;;9.79;100.00
52975;BME280;38839;45.186;5.720;2024-01-30T11:55:59;100848.00;;;9.81;100.00
52975;BME280;38839;45.186;5.720;2024-01-30T11:58:24;100835.16;;;9.89;100.00
52975;BME280;38839;45.186;5.720;2024-01-30T12:00:54;100841.31;;;9.92;100.00
52975;BME280;38839;45.186;5.720;2024-01-30T12:03:20;100835.06;;;9.85;100.00
52975;BME280;38839;45.186;5.720;2024-01-30T12:05:45;100825.69;;;9.92;100.00
52975;BME280;38839;45.186;5.720;2024-01-30T12:08:15;100825.84;;;9.98;100.00
52975;BME280;38839;45.186;5.720;2024-01-30T12:10:40;100825.13;;;10.04;100.00
52975;BME280;38839;45.186;5.720;2024-01-30T12:13:05;100815.56;;;10.03;100.00
52975;BME280;38839;45.186;5.720;2024-01-30T12:15:30;100821.53;;;10.00;100.00
52975;BME280;38839;45.186;5.720;2024-01-30T12:18:05;100812.75;;;9.95;100.00
52975;BME280;38839;45.186;5.720;2024-01-30T12:20:33;100811.81;;;9.93;100.00
52975;BME280;38839;45.186;5.720;2024-01-30T12:22:59;100812.41;;;9.83;100.00
52975;BME280;38839;45.186;5.720;2024-01-30T12:25:24;100808.88;;;9.81;100.00
52975;BME280;38839;45.186;5.720;2024-01-30T12:27:50;100810.47;;;9.76;100.00
52975;BME280;38839;45.186;5.720;2024-01-30T12:30:16;100797.22;;;9.66;100.00
52975;BME280;38839;45.186;5.720;2024-01-30T12:32:42;100800.47;;;9.59;100.00
52975;BME280;38839;45.186;5.720;2024-01-30T12:35:18;100798.91;;;9.64;100.00
52975;BME280;38839;45.186;5.720;2024-01-30T12:37:43;100799.88;;;9.70;100.00
52975;BME280;38839;45.186;5.720;2024-01-30T12:40:09;100795.53;;;9.69;100.00
52975;BME280;38839;45.186;5.720;2024-01-30T12:42:35;100793.09;;;9.75;100.00
52975;BME280;38839;45.186;5.720;2024-01-30T12:45:02;100787.03;;;9.76;100.00
52975;BME280;38839;45.186;5.720;2024-01-30T12:47:27;100783.66;;;9.80;100.00
52975;BME280;38839;45.186;5.720;2024-01-30T12:49:53;100782.81;;;9.81;100.00
52975;BME280;38839;45.186;5.720;2024-01-30T12:52:18;100786.31;;;9.81;100.00
52975;BME280;38839;45.186;5.720;2024-01-30T12:54:44;100787.19;;;9.82;100.00
52975;BME280;38839;45.186;5.720;2024-01-30T12:57:09;100781.03;;;9.78;100.00
52975;BME280;38839;45.186;5.720;2024-01-30T12:59:34;100786.09;;;9.74;100.00
52975;BME280;38839;45.186;5.720;2024-01-30T13:02:00;100779.09;;;9.71;100.00
52975;BME280;38839;45.186;5.720;2024-01-30T13:04:25;100771.16;;;9.66;100.00
52975;BME280;38839;45.186;5.720;2024-01-30T13:06:51;100776.41;;;9.68;100.00
52975;BME280;38839;45.186;5.720;2024-01-30T13:09:16;100773.91;;;9.73;100.00
52975;BME280;38839;45.186;5.720;2024-01-30T13:11:42;100772.19;;;9.73;100.00
52975;BME280;38839;45.186;5.720;2024-01-30T13:14:07;100774.84;;;9.75;100.00
52975;BME280;38839;45.186;5.720;2024-01-30T13:16:32;100770.72;;;9.83;100.00
52975;BME280;38839;45.186;5.720;2024-01-30T13:18:58;100768.22;;;9.87;100.00
52975;BME280;38839;45.186;5.720;2024-01-30T13:21:23;100764.75;;;9.87;100.00
52975;BME280;38839;45.186;5.720;2024-01-30T13:23:48;100761.38;;;9.91;100.00
52975;BME280;38839;45.186;5.720;2024-01-30T13:26:18;100763.25;;;9.98;100.00
52975;BME280;38839;45.186;5.720;2024-01-30T13:28:43;100764.13;;;9.97;100.00
52975;BME280;38839;45.186;5.720;2024-01-30T13:31:08;100765.81;;;9.95;100.00
52975;BME280;38839;45.186;5.720;2024-01-30T13:33:33;100767.75;;;10.04;100.00
52975;BME280;38839;45.186;5.720;2024-01-30T13:35:59;100765.09;;;10.02;100.00
52975;BME280;38839;45.186;5.720;2024-01-30T13:38:24;100760.81;;;10.03;100.00
52975;BME280;38839;45.186;5.720;2024-01-30T13:40:49;100760.13;;;10.12;100.00
52975;BME280;38839;45.186;5.720;2024-01-30T13:43:15;100760.34;;;10.21;100.00
52975;BME280;38839;45.186;5.720;2024-01-30T13:45:41;100753.47;;;10.24;100.00
52975;BME280;38839;45.186;5.720;2024-01-30T13:48:07;100763.09;;;10.27;100.00
52975;BME280;38839;45.186;5.720;2024-01-30T13:50:32;100760.44;;;10.24;100.00
52975;BME280;38839;45.186;5.720;2024-01-30T13:52:58;100755.22;;;10.24;100.00
52975;BME280;38839;45.186;5.720;2024-01-30T13:55:23;100762.13;;;10.22;100.00
52975;BME280;38839;45.186;5.720;2024-01-30T13:57:48;100762.03;;;10.17;100.00
52975;BME280;38839;45.186;5.720;2024-01-30T14:00:13;100757.59;;;10.15;100.00
52975;BME280;38839;45.186;5.720;2024-01-30T14:02:41;100760.91;;;10.07;100.00
52975;BME280;38839;45.186;5.720;2024-01-30T14:05:06;100754.88;;;10.10;100.00
52975;BME280;38839;45.186;5.720;2024-01-30T14:07:31;100753.94;;;10.08;100.00
52975;BME280;38839;45.186;5.720;2024-01-30T14:09:57;100757.53;;;10.12;100.00
52975;BME280;38839;45.186;5.720;2024-01-30T14:12:22;100754.91;;;10.12;100.00
52975;BME280;38839;45.186;5.720;2024-01-30T14:14:47;100754.97;;;10.15;100.00
52975;BME280;38839;45.186;5.720;2024-01-30T14:17:12;100753.22;;;10.14;100.00
52975;BME280;38839;45.186;5.720;2024-01-30T14:19:38;100757.47;;;10.10;100.00
52975;BME280;38839;45.186;5.720;2024-01-30T14:22:03;100754.81;;;10.08;100.00
52975;BME280;38839;45.186;5.720;2024-01-30T14:24:28;100759.22;;;10.10;100.00
52975;BME280;38839;45.186;5.720;2024-01-30T14:26:54;100755.69;;;10.07;100.00
52975;BME280;38839;45.186;5.720;2024-01-30T14:29:19;100751.41;;;10.10;100.00
52975;BME280;38839;45.186;5.720;2024-01-30T14:31:44;100751.41;;;10.10;100.00
52975;BME280;38839;45.186;5.720;2024-01-30T14:34:09;100750.63;;;10.14;100.00
52975;BME280;38839;45.186;5.720;2024-01-30T14:36:38;100749.69;;;10.12;100.00
52975;BME280;38839;45.186;5.720;2024-01-30T14:39:03;100744.63;;;10.18;100.00
52975;BME280;38839;45.186;5.720;2024-01-30T14:41:29;100752.50;;;10.19;100.00
52975;BME280;38839;45.186;5.720;2024-01-30T14:43:54;100743.00;;;10.21;100.00
52975;BME280;38839;45.186;5.720;2024-01-30T14:46:19;100743.81;;;10.20;100.00
52975;BME280;38839;45.186;5.720;2024-01-30T14:48:45;100735.13;;;10.20;100.00
52975;BME280;38839;45.186;5.720;2024-01-30T14:51:10;100744.63;;;10.18;100.00
52975;BME280;38839;45.186;5.720;2024-01-30T14:53:35;100735.84;;;10.14;100.00
52975;BME280;38839;45.186;5.720;2024-01-30T14:56:00;100740.25;;;10.15;100.00
52975;BME280;38839;45.186;5.720;2024-01-30T14:58:27;100746.31;;;10.16;100.00
52975;BME280;38839;45.186;5.720;2024-01-30T15:00:53;100745.47;;;10.17;100.00
52975;BME280;38839;45.186;5.720;2024-01-30T15:03:18;100744.75;;;10.22;100.00
52975;BME280;38839;45.186;5.720;2024-01-30T15:05:43;100739.47;;;10.21;100.00
52975;BME280;38839;45.186;5.720;2024-01-30T15:08:09;100740.25;;;10.17;100.00
52975;BME280;38839;45.186;5.720;2024-01-30T15:10:34;100742.03;;;10.18;100.00
52975;BME280;38839;45.186;5.720;2024-01-30T15:12:59;100742.94;;;10.20;100.00
52975;BME280;38839;45.186;5.720;2024-01-30T15:15:25;100743.81;;;10.20;100.00
52975;BME280;38839;45.186;5.720;2024-01-30T15:17:50;100745.75;;;10.29;100.00
52975;BME280;38839;45.186;5.720;2024-01-30T15:20:15;100744.00;;;10.28;100.00
52975;BME280;38839;45.186;5.720;2024-01-30T15:22:43;100745.00;;;10.32;100.00
52975;BME280;38839;45.186;5.720;2024-01-30T15:25:09;100738.88;;;10.30;100.00
52975;BME280;38839;45.186;5.720;2024-01-30T15:27:35;100740.53;;;10.29;100.00
52975;BME280;38839;45.186;5.720;2024-01-30T15:30:00;100740.72;;;10.34;100.00
52975;BME280;38839;45.186;5.720;2024-01-30T15:32:26;100741.63;;;10.36;100.00
52975;BME280;38839;45.186;5.720;2024-01-30T15:34:51;100733.84;;;10.39;100.00
52975;BME280;38839;45.186;5.720;2024-01-30T15:37:16;100739.00;;;10.36;100.00
52975;BME280;38839;45.186;5.720;2024-01-30T15:39:42;100735.44;;;10.32;100.00
52975;BME280;38839;45.186;5.720;2024-01-30T15:42:07;100738.97;;;10.34;100.00
52975;BME280;38839;45.186;5.720;2024-01-30T15:44:32;100741.63;;;10.37;100.00
52975;BME280;38839;45.186;5.720;2024-01-30T15:46:58;100741.56;;;10.34;100.00
52975;BME280;38839;45.186;5.720;2024-01-30T15:49:23;100741.56;;;10.34;100.00
52975;BME280;38839;45.186;5.720;2024-01-30T15:51:49;100742.41;;;10.33;100.00
52975;BME280;38839;45.186;5.720;2024-01-30T15:54:15;100750.22;;;10.32;100.00
52975;BME280;38839;45.186;5.720;2024-01-30T15:56:40;100750.31;;;10.36;100.00
52975;BME280;38839;45.186;5.720;2024-01-30T15:59:05;100753.75;;;10.35;100.00
52975;BME280;38839;45.186;5.720;2024-01-30T16:01:31;100752.88;;;10.35;100.00
52975;BME280;38839;45.186;5.720;2024-01-30T16:03:56;100752.84;;;10.32;100.00
52975;BME280;38839;45.186;5.720;2024-01-30T16:06:21;100752.84;;;10.32;100.00
52975;BME280;38839;45.186;5.720;2024-01-30T16:08:47;100750.06;;;10.27;100.00
52975;BME280;38839;45.186;5.720;2024-01-30T16:11:12;100756.13;;;10.26;100.00
52975;BME280;38839;45.186;5.720;2024-01-30T16:13:37;100758.59;;;10.20;100.00
52975;BME280;38839;45.186;5.720;2024-01-30T16:16:04;100761.19;;;10.20;100.00
52975;BME280;38839;45.186;5.720;2024-01-30T16:18:30;100762.81;;;10.15;100.00
52975;BME280;38839;45.186;5.720;2024-01-30T16:20:56;100769.72;;;10.13;100.00
52975;BME280;38839;45.186;5.720;2024-01-30T16:23:21;100775.63;;;10.05;100.00
52975;BME280;38839;45.186;5.720;2024-01-30T16:25:46;100759.88;;;10.02;100.00
52975;BME280;38839;45.186;5.720;2024-01-30T16:28:12;100764.19;;;9.99;100.00
52975;BME280;38839;45.186;5.720;2024-01-30T16:30:37;100772.09;;;10.03;100.00
52975;BME280;38839;45.186;5.720;2024-01-30T16:33:03;100770.41;;;10.05;100.00
52975;BME280;38839;45.186;5.720;2024-01-30T16:35:28;100778.25;;;10.05;100.00
52975;BME280;38839;45.186;5.720;2024-01-30T16:37:54;100776.44;;;10.03;100.00
52975;BME280;38839;45.186;5.720;2024-01-30T16:40:19;100783.44;;;10.05;100.00
52975;BME280;38839;45.186;5.720;2024-01-30T16:42:44;100785.19;;;10.05;100.00
52975;BME280;38839;45.186;5.720;2024-01-30T16:45:10;100780.69;;;9.99;100.00
52975;BME280;38839;45.186;5.720;2024-01-30T16:47:35;100793.78;;;10.01;100.00
52975;BME280;38839;45.186;5.720;2024-01-30T16:50:00;100793.53;;;9.92;100.00
52975;BME280;38839;45.186;5.720;2024-01-30T16:52:25;100797.75;;;9.88;100.00
52975;BME280;38839;45.186;5.720;2024-01-30T16:54:51;100799.19;;;9.75;100.00
52975;BME280;38839;45.186;5.720;2024-01-30T16:57:17;100799.72;;;9.63;100.00
52975;BME280;38839;45.186;5.720;2024-01-30T16:59:42;100801.22;;;9.55;100.00
52975;BME280;38839;45.186;5.720;2024-01-30T17:02:07;100805.78;;;9.62;100.00
52975;BME280;38839;45.186;5.720;2024-01-30T17:04:33;100804.00;;;9.61;100.00
52975;BME280;38839;45.186;5.720;2024-01-30T17:06:58;100810.03;;;9.59;100.00
52975;BME280;38839;45.186;5.720;2024-01-30T17:09:24;100819.56;;;9.58;100.00
52975;BME280;38839;45.186;5.720;2024-01-30T17:11:49;100820.22;;;9.51;100.00
52975;BME280;38839;45.186;5.720;2024-01-30T17:14:14;100827.06;;;9.46;100.00
52975;BME280;38839;45.186;5.720;2024-01-30T17:16:41;100839.03;;;9.41;100.00
52975;BME280;38839;45.186;5.720;2024-01-30T17:19:07;100848.47;;;9.36;100.00
52975;BME280;38839;45.186;5.720;2024-01-30T17:21:32;100847.84;;;9.44;100.00
52975;BME280;38839;45.186;5.720;2024-01-30T17:23:59;100853.81;;;9.40;100.00
52975;BME280;38839;45.186;5.720;2024-01-30T17:26:24;100850.13;;;9.34;100.00
52975;BME280;38839;45.186;5.720;2024-01-30T17:28:49;100851.63;;;9.25;100.00
52975;BME280;38839;45.186;5.720;2024-01-30T17:31:15;100850.72;;;9.23;100.00
52975;BME280;38839;45.186;5.720;2024-01-30T17:33:40;100854.94;;;9.20;100.00
52975;BME280;38839;45.186;5.720;2024-01-30T17:36:06;100851.47;;;9.19;100.00
52975;BME280;38839;45.186;5.720;2024-01-30T17:38:32;100867.91;;;9.18;100.00
52975;BME280;38839;45.186;5.720;2024-01-30T17:40:57;100858.22;;;9.14;100.00
52975;BME280;38839;45.186;5.720;2024-01-30T17:43:22;100856.56;;;9.16;100.00
52975;BME280;38839;45.186;5.720;2024-01-30T17:45:48;100859.03;;;9.12;100.00
52975;BME280;38839;45.186;5.720;2024-01-30T17:48:13;100861.56;;;9.10;100.00
52975;BME280;38839;45.186;5.720;2024-01-30T17:50:38;100866.03;;;9.13;100.00
52975;BME280;38839;45.186;5.720;2024-01-30T17:53:04;100860.75;;;9.11;100.00
52975;BME280;38839;45.186;5.720;2024-01-30T17:55:29;100864.75;;;9.00;100.00
52975;BME280;38839;45.186;5.720;2024-01-30T17:57:54;100868.00;;;8.93;100.00
52975;BME280;38839;45.186;5.720;2024-01-30T18:00:21;100867.81;;;8.86;100.00
52975;BME280;38839;45.186;5.720;2024-01-30T18:02:47;100870.31;;;8.83;100.00
52975;BME280;38839;45.186;5.720;2024-01-30T18:05:12;100869.34;;;8.80;100.00
52975;BME280;38839;45.186;5.720;2024-01-30T18:07:37;100872.63;;;8.74;100.00
52975;BME280;38839;45.186;5.720;2024-01-30T18:10:06;100874.31;;;8.72;100.00
52975;BME280;38839;45.186;5.720;2024-01-30T18:12:32;100883.78;;;8.70;100.00
52975;BME280;38839;45.186;5.720;2024-01-30T18:14:57;100887.13;;;8.66;100.00
52975;BME280;38839;45.186;5.720;2024-01-30T18:17:22;100886.06;;;8.61;100.00
52975;BME280;38839;45.186;5.720;2024-01-30T18:19:48;100883.38;;;8.58;100.00
52975;BME280;38839;45.186;5.720;2024-01-30T18:22:13;100893.66;;;8.55;100.00
52975;BME280;38839;45.186;5.720;2024-01-30T18:24:39;100892.72;;;8.53;100.00
52975;BME280;38839;45.186;5.720;2024-01-30T18:27:04;100899.53;;;8.48;100.00
52975;BME280;38839;45.186;5.720;2024-01-30T18:29:29;100906.38;;;8.45;100.00
52975;BME280;38839;45.186;5.720;2024-01-30T18:31:54;100901.06;;;8.42;100.00
52975;BME280;38839;45.186;5.720;2024-01-30T18:34:20;100900.88;;;8.38;100.00
52975;BME280;38839;45.186;5.720;2024-01-30T18:36:45;100909.56;;;8.38;100.00
52975;BME280;38839;45.186;5.720;2024-01-30T18:39:10;100914.69;;;8.35;100.00
52975;BME280;38839;45.186;5.720;2024-01-30T18:41:35;100912.81;;;8.31;100.00
52975;BME280;38839;45.186;5.720;2024-01-30T18:44:01;100916.19;;;8.29;100.00
52975;BME280;38839;45.186;5.720;2024-01-30T18:46:27;100911.66;;;8.23;100.00
52975;BME280;38839;45.186;5.720;2024-01-30T18:48:52;100916.72;;;8.18;100.00
52975;BME280;38839;45.186;5.720;2024-01-30T18:51:18;100917.44;;;8.14;100.00
52975;BME280;38839;45.186;5.720;2024-01-30T18:53:43;100929.44;;;8.11;100.00
52975;BME280;38839;45.186;5.720;2024-01-30T18:56:08;100924.09;;;8.07;100.00
52975;BME280;38839;45.186;5.720;2024-01-30T18:58:34;100924.81;;;8.03;100.00
52975;BME280;38839;45.186;5.720;2024-01-30T19:00:59;100932.53;;;8.00;100.00
52975;BME280;38839;45.186;5.720;2024-01-30T19:03:24;100928.13;;;7.98;100.00
52975;BME280;38839;45.186;5.720;2024-01-30T19:05:51;100930.53;;;7.93;100.00
52975;BME280;38839;45.186;5.720;2024-01-30T19:08:17;100927.91;;;7.92;100.00
52975;BME280;38839;45.186;5.720;2024-01-30T19:10:43;100924.22;;;7.86;100.00
52975;BME280;38839;45.186;5.720;2024-01-30T19:13:08;100921.47;;;7.82;100.00
52975;BME280;38839;45.186;5.720;2024-01-30T19:15:36;100915.28;;;7.78;100.00
52975;BME280;38839;45.186;5.720;2024-01-30T19:18:02;100922.91;;;7.74;100.00
52975;BME280;38839;45.186;5.720;2024-01-30T19:20:27;100918.53;;;7.73;100.00
52975;BME280;38839;45.186;5.720;2024-01-30T19:22:53;100923.63;;;7.70;100.00
52975;BME280;38839;45.186;5.720;2024-01-30T19:25:18;100917.41;;;7.66;100.00
52975;BME280;38839;45.186;5.720;2024-01-30T19:27:44;100912.16;;;7.64;100.00
52975;BME280;38839;45.186;5.720;2024-01-30T19:30:09;100917.25;;;7.61;100.00
52975;BME280;38839;45.186;5.720;2024-01-30T19:32:35;100920.66;;;7.60;100.00
52975;BME280;38839;45.186;5.720;2024-01-30T19:35:00;100920.44;;;7.54;100.00
52975;BME280;38839;45.186;5.720;2024-01-30T19:37:25;100921.28;;;7.53;100.00
52975;BME280;38839;45.186;5.720;2024-01-30T19:39:52;100926.47;;;7.53;100.00
52975;BME280;38839;45.186;5.720;2024-01-30T19:42:17;100927.28;;;7.52;100.00
52975;BME280;38839;45.186;5.720;2024-01-30T19:44:42;100923.75;;;7.50;100.00
52975;BME280;38839;45.186;5.720;2024-01-30T19:47:08;100930.59;;;7.48;100.00
52975;BME280;38839;45.186;5.720;2024-01-30T19:49:37;100925.31;;;7.45;100.00
52975;BME280;38839;45.186;5.720;2024-01-30T19:52:06;100925.88;;;7.38;100.00
52975;BME280;38839;45.186;5.720;2024-01-30T19:54:33;100922.25;;;7.33;100.00
52975;BME280;38839;45.186;5.720;2024-01-30T19:56:59;100923.88;;;7.31;100.00
52975;BME280;38839;45.186;5.720;2024-01-30T19:59:27;100923.75;;;7.28;100.00
52975;BME280;38839;45.186;5.720;2024-01-30T20:01:53;100926.25;;;7.24;100.00
52975;BME280;38839;45.186;5.720;2024-01-30T20:04:18;100929.66;;;7.23;100.00
52975;BME280;38839;45.186;5.720;2024-01-30T20:06:43;100927.06;;;7.23;100.00
52975;BME280;38839;45.186;5.720;2024-01-30T20:09:09;100932.25;;;7.23;100.00
52975;BME280;38839;45.186;5.720;2024-01-30T20:11:34;100931.28;;;7.20;100.00
52975;BME280;38839;45.186;5.720;2024-01-30T20:14:00;100940.63;;;7.16;100.00
52975;BME280;38839;45.186;5.720;2024-01-30T20:16:25;100932.78;;;7.15;100.00
52975;BME280;38839;45.186;5.720;2024-01-30T20:18:50;100939.69;;;7.14;100.00
52975;BME280;38839;45.186;5.720;2024-01-30T20:21:15;100946.41;;;7.09;100.00
52975;BME280;38839;45.186;5.720;2024-01-30T20:23:41;100940.22;;;7.05;100.00
52975;BME280;38839;45.186;5.720;2024-01-30T20:26:06;100948.81;;;7.04;100.00
52975;BME280;38839;45.186;5.720;2024-01-30T20:28:32;100948.72;;;7.01;100.00
52975;BME280;38839;45.186;5.720;2024-01-30T20:30:57;100958.19;;;7.01;100.00
52975;BME280;38839;45.186;5.720;2024-01-30T20:33:23;100959.78;;;6.97;100.00
52975;BME280;38839;45.186;5.720;2024-01-30T20:35:52;100952.88;;;6.98;100.00
52975;BME280;38839;45.186;5.720;2024-01-30T20:38:18;100955.47;;;6.98;100.00
52975;BME280;38839;45.186;5.720;2024-01-30T20:40:43;100958.00;;;6.96;100.00
52975;BME280;38839;45.186;5.720;2024-01-30T20:43:08;100956.28;;;6.97;100.00
52975;BME280;38839;45.186;5.720;2024-01-30T20:45:33;100958.06;;;6.98;100.00
52975;BME280;38839;45.186;5.720;2024-01-30T20:47:59;100964.22;;;7.00;100.00
52975;BME280;38839;45.186;5.720;2024-01-30T20:50:26;100967.69;;;7.00;100.00
52975;BME280;38839;45.186;5.720;2024-01-30T20:52:51;100963.25;;;6.98;100.00
52975;BME280;38839;45.186;5.720;2024-01-30T20:55:16;100964.84;;;6.94;100.00
52975;BME280;38839;45.186;5.720;2024-01-30T20:57:41;100967.44;;;6.94;100.00
52975;BME280;38839;45.186;5.720;2024-01-30T21:00:07;100971.59;;;6.91;100.00
52975;BME280;38839;45.186;5.720;2024-01-30T21:02:32;100967.31;;;6.91;100.00
52975;BME280;38839;45.186;5.720;2024-01-30T21:05:00;100970.66;;;6.89;100.00
52975;BME280;38839;45.186;5.720;2024-01-30T21:07:25;100968.91;;;6.88;100.00
52975;BME280;38839;45.186;5.720;2024-01-30T21:09:50;100966.31;;;6.88;100.00
52975;BME280;38839;45.186;5.720;2024-01-30T21:12:16;100967.06;;;6.85;100.00
52975;BME280;38839;45.186;5.720;2024-01-30T21:14:41;100964.41;;;6.83;100.00
52975;BME280;38839;45.186;5.720;2024-01-30T21:17:06;100963.56;;;6.84;100.00
52975;BME280;38839;45.186;5.720;2024-01-30T21:19:32;100969.59;;;6.83;100.00
52975;BME280;38839;45.186;5.720;2024-01-30T21:21:57;100971.34;;;6.84;100.00
52975;BME280;38839;45.186;5.720;2024-01-30T21:24:22;100966.94;;;6.82;100.00
52975;BME280;38839;45.186;5.720;2024-01-30T21:26:47;100973.84;;;6.81;100.00
52975;BME280;38839;45.186;5.720;2024-01-30T21:29:12;100977.25;;;6.80;100.00
52975;BME280;38839;45.186;5.720;2024-01-30T21:31:38;100977.81;;;6.73;100.00
52975;BME280;38839;45.186;5.720;2024-01-30T21:34:03;100967.44;;;6.73;100.00
52975;BME280;38839;45.186;5.720;2024-01-30T21:36:29;100976.09;;;6.74;100.00
52975;BME280;38839;45.186;5.720;2024-01-30T21:38:54;100964.78;;;6.72;100.00
52975;BME280;38839;45.186;5.720;2024-01-30T21:41:19;100979.22;;;6.65;100.00
52975;BME280;38839;45.186;5.720;2024-01-30T21:43:47;100975.03;;;6.69;100.00
52975;BME280;38839;45.186;5.720;2024-01-30T21:46:22;100970.81;;;6.71;100.00
52975;BME280;38839;45.186;5.720;2024-01-30T21:48:47;100970.75;;;6.69;100.00
52975;BME280;38839;45.186;5.720;2024-01-30T21:51:12;100977.56;;;6.67;100.00
52975;BME280;38839;45.186;5.720;2024-01-30T21:53:38;100976.97;;;6.74;100.00
52975;BME280;38839;45.186;5.720;2024-01-30T21:56:03;100974.47;;;6.76;100.00
52975;BME280;38839;45.186;5.720;2024-01-30T21:58:28;100971.00;;;6.75;100.00
52975;BME280;38839;45.186;5.720;2024-01-30T22:00:54;100978.84;;;6.77;100.00
52975;BME280;38839;45.186;5.720;2024-01-30T22:03:19;100980.53;;;6.76;100.00
52975;BME280;38839;45.186;5.720;2024-01-30T22:05:44;100984.50;;;6.68;100.00
52975;BME280;38839;45.186;5.720;2024-01-30T22:08:09;100979.06;;;6.62;100.00
52975;BME280;38839;45.186;5.720;2024-01-30T22:10:35;100986.59;;;6.56;100.00
52975;BME280;38839;45.186;5.720;2024-01-30T22:13:00;100991.59;;;6.51;100.00
52975;BME280;38839;45.186;5.720;2024-01-30T22:15:25;100992.19;;;6.45;100.00
52975;BME280;38839;45.186;5.720;2024-01-30T22:17:50;100998.91;;;6.40;100.00
52975;BME280;38839;45.186;5.720;2024-01-30T22:20:16;100996.25;;;6.39;100.00
52975;BME280;38839;45.186;5.720;2024-01-30T22:22:41;101005.59;;;6.35;100.00
52975;BME280;38839;45.186;5.720;2024-01-30T22:25:06;101010.50;;;6.29;100.00
52975;BME280;38839;45.186;5.720;2024-01-30T22:27:31;101005.13;;;6.24;100.00
52975;BME280;38839;45.186;5.720;2024-01-30T22:29:57;101010.09;;;6.20;100.00
52975;BME280;38839;45.186;5.720;2024-01-30T22:32:22;101012.50;;;6.15;100.00
52975;BME280;38839;45.186;5.720;2024-01-30T22:34:47;101008.06;;;6.13;100.00
52975;BME280;38839;45.186;5.720;2024-01-30T22:37:12;101015.78;;;6.11;100.00
52975;BME280;38839;45.186;5.720;2024-01-30T22:39:38;101014.81;;;6.09;100.00
52975;BME280;38839;45.186;5.720;2024-01-30T22:42:03;101025.09;;;6.08;100.00
52975;BME280;38839;45.186;5.720;2024-01-30T22:44:29;101014.75;;;6.08;100.00
52975;BME280;38839;45.186;5.720;2024-01-30T22:46:54;101009.41;;;6.04;100.00
52975;BME280;38839;45.186;5.720;2024-01-30T22:49:19;101003.84;;;5.95;100.00
52975;BME280;38839;45.186;5.720;2024-01-30T22:51:45;101014.97;;;5.94;100.00
52975;BME280;38839;45.186;5.720;2024-01-30T22:54:14;101009.56;;;5.90;100.00
52975;BME280;38839;45.186;5.720;2024-01-30T22:56:39;101018.19;;;5.89;100.00
52975;BME280;38839;45.186;5.720;2024-01-30T22:59:04;101010.47;;;5.90;100.00
52975;BME280;38839;45.186;5.720;2024-01-30T23:01:29;101002.69;;;5.90;100.00
52975;BME280;38839;45.186;5.720;2024-01-30T23:03:55;101007.06;;;5.91;100.00
52975;BME280;38839;45.186;5.720;2024-01-30T23:06:20;101007.94;;;5.92;100.00
52975;BME280;38839;45.186;5.720;2024-01-30T23:08:45;101008.69;;;5.89;100.00
52975;BME280;38839;45.186;5.720;2024-01-30T23:11:13;101010.47;;;5.90;100.00
52975;BME280;38839;45.186;5.720;2024-01-30T23:13:40;101009.47;;;5.87;100.00
52975;BME280;38839;45.186;5.720;2024-01-30T23:16:05;101005.94;;;5.86;100.00
52975;BME280;38839;45.186;5.720;2024-01-30T23:18:31;101012.09;;;5.88;100.00
52975;BME280;38839;45.186;5.720;2024-01-30T23:20:56;101005.06;;;5.85;100.00
52975;BME280;38839;45.186;5.720;2024-01-30T23:23:21;101005.94;;;5.86;100.00
52975;BME280;38839;45.186;5.720;2024-01-30T23:25:46;101003.38;;;5.86;100.00